Time;durP1;ratioP1;P1;durP2;ratioP2;P2;SDS_P1;SDS_P2;PMS_P1;PMS_P2;Temp;Humidity;BMP_temperature;BMP_pressure;BME280_temperature;BME280_humidity;BME280_pressure;Samples;Min_cycle;Max_cycle;Signal;HPM_P1;HPM_P2
2024/03/06 00:00:37;;;;;;;14.50;13.03;;;;;;;6.62;82.54;101096.34;5068008;28;20655;-78
2024/03/06 00:03:04;;;;;;;13.83;12.63;;;;;;;6.63;82.75;101115.34;5072133;28;20236;-77
2024/03/06 00:05:30;;;;;;;15.43;14.03;;;;;;;6.59;82.50;101130.03;5072242;28;20232;-78
2024/03/06 00:07:58;;;;;;;13.50;12.23;;;;;;;6.59;81.62;101129.16;5072460;28;20778;-77
2024/03/06 00:10:24;;;;;;;14.27;12.93;;;;;;;6.59;81.23;101142.13;5073733;28;20254;-76
2024/03/06 00:12:51;;;;;;;14.67;13.03;;;;;;;6.61;82.41;101149.06;5074954;28;20209;-78
2024/03/06 00:15:17;;;;;;;15.50;14.20;;;;;;;6.58;82.36;101143.88;5074998;28;20274;-78
2024/03/06 00:17:43;;;;;;;15.20;13.80;;;;;;;6.57;83.04;101134.31;5074277;28;20273;-77
2024/03/06 00:20:11;;;;;;;16.37;14.17;;;;;;;6.60;82.21;101149.94;5073353;28;20671;-75
2024/03/06 00:22:37;;;;;;;15.03;13.53;;;;;;;6.58;82.11;101149.03;5074688;28;20705;-79
2024/03/06 00:25:06;;;;;;;15.70;14.40;;;;;;;6.54;81.88;101132.59;5074265;28;20278;-78
2024/03/06 00:27:32;;;;;;;17.10;15.30;;;;;;;6.53;81.84;101137.75;5071311;28;20209;-78
2024/03/06 00:29:58;;;;;;;17.20;15.57;;;;;;;6.53;81.05;101140.34;5070915;28;20209;-78
2024/03/06 00:32:25;;;;;;;23.10;19.07;;;;;;;6.51;81.33;101161.06;5073638;28;20205;-77
2024/03/06 00:34:51;;;;;;;22.80;19.87;;;;;;;6.51;81.79;101157.63;5074092;28;20221;-78
2024/03/06 00:37:17;;;;;;;20.67;18.33;;;;;;;6.49;82.72;101148.94;5073556;28;20205;-78
2024/03/06 00:39:44;;;;;;;20.97;18.83;;;;;;;6.51;80.72;101162.81;5073627;28;20259;-78
2024/03/06 00:42:13;;;;;;;24.73;19.73;;;;;;;6.51;81.21;101183.56;5073858;28;20259;-77
2024/03/06 00:44:39;;;;;;;22.00;19.90;;;;;;;6.47;80.74;101184.38;5074665;28;20814;-77
2024/03/06 00:47:06;;;;;;;18.83;16.63;;;;;;;6.49;80.31;101203.41;5073119;28;20287;-78
2024/03/06 00:49:32;;;;;;;18.23;16.37;;;;;;;6.46;80.50;101213.75;5072696;28;20235;-78
2024/03/06 00:51:59;;;;;;;20.87;18.57;;;;;;;6.43;80.77;101222.38;5072445;28;20205;-77
2024/03/06 00:54:25;;;;;;;17.50;15.83;;;;;;;6.45;80.54;101227.59;5072700;28;20690;-77
2024/03/06 00:56:51;;;;;;;19.17;17.37;;;;;;;6.45;80.61;101225.00;5073749;28;20671;-77
2024/03/06 00:59:19;;;;;;;17.70;15.90;;;;;;;6.44;80.62;101215.44;5067307;28;20197;-77
2024/03/06 01:01:45;;;;;;;18.10;16.20;;;;;;;6.45;79.82;101220.66;5072964;28;20209;-77
2024/03/06 01:04:12;;;;;;;17.57;16.07;;;;;;;6.45;79.29;101238.81;5053352;28;20267;-76
2024/03/06 01:06:38;;;;;;;17.40;15.70;;;;;;;6.44;79.08;101260.44;5053279;28;20302;-78
2024/03/06 01:09:04;;;;;;;18.73;16.80;;;;;;;6.37;79.69;101258.63;5052541;28;20225;-77
2024/03/06 01:11:31;;;;;;;29.40;16.77;;;;;;;6.35;78.95;101263.78;5051002;28;20206;-77
2024/03/06 01:13:57;;;;;;;18.73;16.83;;;;;;;6.36;80.15;101273.31;5052822;28;20773;-77
2024/03/06 01:16:25;;;;;;;19.00;17.23;;;;;;;6.30;81.35;101261.97;5052620;28;20229;-76
2024/03/06 01:18:51;;;;;;;17.67;15.90;;;;;;;6.33;79.88;101262.88;5052243;28;20799;-78
2024/03/06 01:21:17;;;;;;;18.03;16.13;;;;;;;6.32;80.46;101252.50;5052057;28;20209;-77
2024/03/06 01:23:44;;;;;;;17.53;16.13;;;;;;;6.36;79.81;101242.19;5052107;28;20206;-78
2024/03/06 01:26:11;;;;;;;18.47;16.50;;;;;;;6.32;80.57;101240.41;5052497;28;20257;-78
2024/03/06 01:28:37;;;;;;;19.77;17.83;;;;;;;6.28;81.37;101250.72;5058331;28;20225;-78
2024/03/06 01:31:04;;;;;;;19.50;17.60;;;;;;;6.27;81.24;101233.44;5072561;28;20209;-78
2024/03/06 01:33:32;;;;;;;21.27;16.93;;;;;;;6.22;81.22;101225.59;5072888;28;20205;-78
2024/03/06 01:35:58;;;;;;;20.20;16.70;;;;;;;6.31;80.60;101223.09;5072484;28;20224;-78
2024/03/06 01:38:24;;;;;;;18.97;17.00;;;;;;;6.30;81.41;101223.97;5072502;28;20201;-78
2024/03/06 01:40:51;;;;;;;17.47;15.97;;;;;;;6.33;80.77;101225.72;5073114;28;20619;-77
2024/03/06 01:43:20;;;;;;;18.40;16.70;;;;;;;6.38;80.74;101229.22;5072472;28;20917;-78
2024/03/06 01:45:46;;;;;;;18.10;16.40;;;;;;;6.39;80.73;101236.16;5072661;28;20307;-76
2024/03/06 01:48:14;;;;;;;16.77;15.17;;;;;;;6.37;80.97;101248.25;5072229;28;20453;-77
2024/03/06 01:50:42;;;;;;;17.47;15.93;;;;;;;6.41;80.88;101246.56;5072485;28;20568;-78
2024/03/06 01:53:09;;;;;;;18.07;16.30;;;;;;;6.39;80.60;101238.75;5072508;28;20210;-77
2024/03/06 01:55:36;;;;;;;17.80;16.00;;;;;;;6.35;80.96;101230.06;5071903;28;20225;-77
2024/03/06 01:58:02;;;;;;;19.27;17.27;;;;;;;6.33;81.71;101243.88;5065683;28;20216;-78
2024/03/06 02:00:29;;;;;;;17.43;15.87;;;;;;;6.34;81.60;101233.53;5072747;28;20197;-77
2024/03/06 02:02:56;;;;;;;17.63;16.03;;;;;;;6.36;81.04;101225.75;5072326;28;20231;-78
2024/03/06 02:05:23;;;;;;;17.67;15.90;;;;;;;6.38;80.87;101225.75;5071456;28;20234;-79
2024/03/06 02:07:52;;;;;;;19.43;17.37;;;;;;;6.39;81.02;101215.41;5071291;28;20216;-79
2024/03/06 02:10:19;;;;;;;19.70;17.43;;;;;;;6.39;81.67;101217.16;5071641;28;20283;-79
2024/03/06 02:12:45;;;;;;;18.60;16.93;;;;;;;6.41;81.13;101231.00;5071588;28;20209;-78
2024/03/06 02:15:13;;;;;;;18.73;16.50;;;;;;;6.40;81.34;101222.31;5071592;28;20270;-78
2024/03/06 02:17:41;;;;;;;19.13;16.97;;;;;;;6.39;81.72;101217.16;5071977;28;20207;-78
2024/03/06 02:20:12;;;;;;;18.00;16.40;;;;;;;6.39;82.20;101210.22;5071571;28;20266;-78
2024/03/06 02:22:39;;;;;;;17.67;15.90;;;;;;;6.42;81.71;101219.75;5071030;28;20675;-77
2024/03/06 02:25:07;;;;;;;22.10;17.07;;;;;;;6.41;80.69;101231.00;5071587;28;20768;-78
2024/03/06 02:27:33;;;;;;;21.00;17.47;;;;;;;6.41;81.51;101223.22;5068857;28;21491;-78
2024/03/06 02:30:00;;;;;;;18.30;16.47;;;;;;;6.41;80.99;101226.69;5067284;28;20221;-78
2024/03/06 02:32:26;;;;;;;19.33;17.33;;;;;;;6.40;81.27;101243.06;5071382;28;20282;-76
2024/03/06 02:34:53;;;;;;;17.77;16.17;;;;;;;6.39;81.61;101230.97;5071682;28;20651;-77
2024/03/06 02:37:19;;;;;;;18.27;16.43;;;;;;;6.39;81.55;101230.13;5070777;28;20671;-77
2024/03/06 02:39:47;;;;;;;22.47;17.00;;;;;;;6.34;82.25;101222.25;5071327;28;20209;-78
2024/03/06 02:42:13;;;;;;;19.30;17.33;;;;;;;6.29;83.04;101214.44;5071048;28;20216;-79
2024/03/06 02:44:40;;;;;;;17.63;16.03;;;;;;;6.33;82.98;101195.47;5071148;28;20201;-78
2024/03/06 02:47:06;;;;;;;18.60;16.27;;;;;;;6.38;82.36;101189.47;5071155;28;20205;-78
2024/03/06 02:49:32;;;;;;;18.63;16.93;;;;;;;6.40;82.20;101193.81;5071449;28;20776;-78
2024/03/06 02:52:00;;;;;;;17.90;16.20;;;;;;;6.35;82.02;101206.72;5071883;28;20205;-78
2024/03/06 02:54:27;;;;;;;18.33;16.67;;;;;;;6.39;82.04;101201.59;5071078;28;20220;-79
2024/03/06 02:56:54;;;;;;;18.37;16.77;;;;;;;6.39;82.19;101199.00;5071397;28;20620;-79
2024/03/06 02:59:21;;;;;;;17.83;16.30;;;;;;;6.39;82.72;101188.63;5060781;28;20205;-77
2024/03/06 03:01:48;;;;;;;17.87;16.17;;;;;;;6.34;83.41;101178.19;5065079;28;20205;-78
2024/03/06 03:04:14;;;;;;;19.77;16.23;;;;;;;6.36;82.24;101181.66;5069688;28;20204;-76
2024/03/06 03:06:40;;;;;;;19.20;17.50;;;;;;;6.34;82.20;101197.22;5069722;28;20228;-76
2024/03/06 03:09:06;;;;;;;18.43;16.53;;;;;;;6.33;82.69;101186.84;5069594;28;20286;-78
2024/03/06 03:11:33;;;;;;;18.20;16.53;;;;;;;6.34;83.11;101179.06;5070819;28;20623;-78
2024/03/06 03:14:01;;;;;;;18.30;16.47;;;;;;;6.38;83.42;101179.09;5071221;28;20208;-76
2024/03/06 03:16:28;;;;;;;18.63;16.53;;;;;;;6.36;83.04;101179.97;5070931;28;20602;-78
2024/03/06 03:18:54;;;;;;;18.30;16.53;;;;;;;6.36;83.18;101181.66;5069798;28;20208;-77
2024/03/06 03:21:21;;;;;;;18.80;16.80;;;;;;;6.32;84.12;101175.59;5070145;28;20267;-78
2024/03/06 03:23:49;;;;;;;18.50;16.90;;;;;;;6.38;83.61;101174.75;5070608;28;20208;-77
2024/03/06 03:26:16;;;;;;;18.77;16.23;;;;;;;6.38;83.00;101186.88;5070747;28;20229;-78
2024/03/06 03:28:42;;;;;;;18.43;16.73;;;;;;;6.40;83.32;101188.63;5062799;28;20208;-78
2024/03/06 03:31:10;;;;;;;17.97;16.07;;;;;;;6.42;83.24;101192.13;5070200;28;20201;-78
2024/03/06 03:33:38;;;;;;;18.07;16.47;;;;;;;6.38;82.70;101194.66;5070521;28;20748;-77
2024/03/06 03:36:05;;;;;;;19.43;17.43;;;;;;;6.40;83.17;101193.81;5069927;28;20225;-76
2024/03/06 03:38:31;;;;;;;19.87;17.83;;;;;;;6.41;83.35;101199.88;5070240;28;20209;-78
2024/03/06 03:40:58;;;;;;;17.93;16.30;;;;;;;6.39;83.04;101196.41;5069605;28;20205;-76
2024/03/06 03:43:24;;;;;;;19.20;17.17;;;;;;;6.35;84.13;101193.75;5070803;28;20592;-77
2024/03/06 03:45:51;;;;;;;18.20;16.50;;;;;;;6.39;83.66;101188.63;5070237;28;20225;-76
2024/03/06 03:48:18;;;;;;;19.40;17.60;;;;;;;6.34;84.25;101188.56;5069889;28;20213;-76
2024/03/06 03:50:45;;;;;;;18.60;17.00;;;;;;;6.38;84.09;101181.69;5070043;28;20653;-77
2024/03/06 03:53:11;;;;;;;19.03;17.33;;;;;;;6.38;83.57;101179.09;5069583;28;20283;-79
2024/03/06 03:55:38;;;;;;;18.93;16.07;;;;;;;6.35;84.39;101177.34;5069215;28;20642;-78
2024/03/06 03:58:06;;;;;;;21.10;16.90;;;;;;;6.38;83.21;101192.91;5062505;28;20236;-76
2024/03/06 04:00:33;;;;;;;22.17;17.17;;;;;;;6.41;83.54;101190.38;5069776;28;20248;-78
2024/03/06 04:02:59;;;;;;;18.17;16.40;;;;;;;6.45;83.27;101199.06;5070239;28;20261;-77
2024/03/06 04:05:27;;;;;;;18.90;17.10;;;;;;;6.41;83.71;101199.88;5070368;28;20232;-77
2024/03/06 04:07:53;;;;;;;18.50;16.80;;;;;;;6.40;84.39;101187.75;5068750;28;20212;-76
2024/03/06 04:10:20;;;;;;;17.53;16.03;;;;;;;6.43;83.55;101183.47;5069627;28;20220;-76
2024/03/06 04:12:47;;;;;;;18.53;16.83;;;;;;;6.42;83.53;101193.81;5070926;28;20205;-76
2024/03/06 04:15:13;;;;;;;17.73;16.03;;;;;;;6.41;83.19;101199.88;5070022;28;20249;-77
2024/03/06 04:17:40;;;;;;;18.57;16.77;;;;;;;6.41;84.34;101197.28;5070016;28;20262;-77
2024/03/06 04:20:07;;;;;;;19.03;17.13;;;;;;;6.41;83.84;101197.28;5071616;28;20198;-78
2024/03/06 04:22:35;;;;;;;18.93;16.93;;;;;;;6.38;83.21;101202.44;5070519;28;20232;-78
2024/03/06 04:25:03;;;;;;;18.93;17.03;;;;;;;6.41;83.82;101192.97;5069771;28;20220;-76
2024/03/06 04:27:30;;;;;;;18.60;16.77;;;;;;;6.41;83.30;101194.69;5067265;28;20205;-77
2024/03/06 04:29:56;;;;;;;18.77;17.07;;;;;;;6.40;83.73;101200.72;5062738;28;20225;-78
2024/03/06 04:32:22;;;;;;;18.57;16.70;;;;;;;6.42;83.01;101214.56;5069283;28;20208;-76
2024/03/06 04:34:49;;;;;;;19.27;17.37;;;;;;;6.43;83.58;101227.56;5069195;28;20221;-77
2024/03/06 04:37:15;;;;;;;17.83;16.10;;;;;;;6.38;84.56;101223.16;5069839;28;20262;-76
2024/03/06 04:39:43;;;;;;;17.73;16.13;;;;;;;6.42;83.32;101214.56;5069513;28;20741;-77
2024/03/06 04:42:09;;;;;;;18.73;16.80;;;;;;;6.42;83.72;101228.44;5070457;28;20205;-77
2024/03/06 04:44:37;;;;;;;18.90;17.07;;;;;;;6.42;82.40;101241.41;5069781;28;20250;-77
2024/03/06 04:47:03;;;;;;;17.97;16.10;;;;;;;6.42;83.58;101240.50;5071295;28;20671;-76
2024/03/06 04:49:33;;;;;;;18.50;16.63;;;;;;;6.40;84.15;101232.69;5072510;28;20274;-77
2024/03/06 04:52:00;;;;;;;16.60;15.00;;;;;;;6.37;83.86;101227.50;5071527;28;20211;-77
2024/03/06 04:54:26;;;;;;;18.57;16.60;;;;;;;6.34;84.48;101230.94;5072323;28;20254;-78
2024/03/06 04:56:54;;;;;;;18.47;16.87;;;;;;;6.41;84.19;101224.09;5073077;28;20274;-76
2024/03/06 04:59:21;;;;;;;18.10;16.33;;;;;;;6.45;83.98;101230.19;5073082;28;20294;-78
2024/03/06 05:01:47;;;;;;;19.33;17.37;;;;;;;6.43;83.85;101235.34;5073214;28;20736;-76
2024/03/06 05:04:13;;;;;;;19.43;16.80;;;;;;;6.44;83.60;101236.19;5073480;28;20286;-76
2024/03/06 05:06:40;;;;;;;17.70;16.00;;;;;;;6.40;83.80;101237.88;5073071;28;20228;-79
2024/03/06 05:09:07;;;;;;;18.27;16.57;;;;;;;6.44;83.92;101231.00;5073124;28;20633;-77
2024/03/06 05:11:33;;;;;;;16.63;15.23;;;;;;;6.42;84.36;101236.22;5072908;28;20204;-77
2024/03/06 05:14:01;;;;;;;18.13;16.47;;;;;;;6.45;83.51;101238.81;5073149;28;20224;-78
2024/03/06 05:16:28;;;;;;;17.80;16.10;;;;;;;6.47;83.35;101236.25;5073435;28;20633;-78
2024/03/06 05:18:54;;;;;;;18.53;16.60;;;;;;;6.48;82.84;101258.72;5072778;28;20235;-74
2024/03/06 05:21:22;;;;;;;17.77;15.93;;;;;;;6.47;83.19;101259.59;5073853;28;20202;-76
2024/03/06 05:23:48;;;;;;;20.27;16.13;;;;;;;6.46;83.27;101257.84;5073261;28;20200;-76
2024/03/06 05:26:14;;;;;;;17.60;15.53;;;;;;;6.36;83.99;101259.44;5073109;28;20225;-77
2024/03/06 05:28:41;;;;;;;18.13;16.37;;;;;;;6.39;84.59;101237.91;5075038;28;20196;-77
2024/03/06 05:31:17;;;;;;;17.83;16.13;;;;;;;6.37;84.88;101237.88;5072106;28;20228;-77
2024/03/06 05:33:43;;;;;;;18.97;17.10;;;;;;;6.39;84.96;101225.78;5072462;28;20328;-76
2024/03/06 05:36:10;;;;;;;17.10;15.50;;;;;;;6.40;84.49;101227.50;5072761;28;20224;-77
2024/03/06 05:38:36;;;;;;;17.77;15.97;;;;;;;6.42;84.61;101231.03;5071399;28;20720;-76
2024/03/06 05:41:02;;;;;;;17.57;15.83;;;;;;;6.42;84.28;101236.22;5072198;28;20258;-77
2024/03/06 05:43:29;;;;;;;17.47;15.60;;;;;;;6.39;84.20;101243.06;5072672;28;20200;-77
2024/03/06 05:45:55;;;;;;;17.40;15.70;;;;;;;6.44;84.28;101249.16;5072019;28;20316;-77
2024/03/06 05:48:24;;;;;;;17.33;15.70;;;;;;;6.44;84.02;101249.16;5070951;28;20209;-77
2024/03/06 05:50:50;;;;;;;18.13;16.33;;;;;;;6.45;83.33;101269.06;5072809;28;20225;-77
2024/03/06 05:53:16;;;;;;;17.10;15.60;;;;;;;6.45;82.93;101269.06;5072204;28;20198;-77
2024/03/06 05:55:43;;;;;;;20.17;16.00;;;;;;;6.46;82.99;101278.56;5073236;28;20648;-78
2024/03/06 05:58:09;;;;;;;18.37;15.53;;;;;;;6.45;83.63;101280.31;5072593;28;20813;-76
2024/03/06 06:00:35;;;;;;;19.17;17.17;;;;;;;6.43;84.68;101275.97;5074708;28;20285;-76
2024/03/06 06:03:02;;;;;;;21.83;17.63;;;;;;;6.37;85.11;101256.03;5074017;28;20267;-76
2024/03/06 06:05:30;;;;;;;20.13;17.63;;;;;;;6.36;85.22;101252.56;5074771;28;20250;-78
2024/03/06 06:07:56;;;;;;;18.90;17.20;;;;;;;6.39;85.37;101248.25;5077213;28;20240;-77
2024/03/06 06:10:23;;;;;;;17.73;16.10;;;;;;;6.39;84.43;101259.50;5077337;28;20235;-78
2024/03/06 06:12:50;;;;;;;17.80;16.20;;;;;;;6.38;84.34;101257.75;5079107;28;20201;-77
2024/03/06 06:15:16;;;;;;;19.23;15.83;;;;;;;6.37;84.30;101268.97;5077783;28;20243;-76
2024/03/06 06:17:44;;;;;;;17.20;15.50;;;;;;;6.43;83.68;101283.75;5078634;28;20205;-75
2024/03/06 06:20:14;;;;;;;19.00;16.43;;;;;;;6.48;84.20;101288.16;5073003;28;20220;-78
2024/03/06 06:22:42;;;;;;;17.30;15.60;;;;;;;6.46;83.78;101288.94;5071488;28;20216;-77
2024/03/06 06:25:09;;;;;;;18.70;16.80;;;;;;;6.45;84.32;101293.28;5071594;28;20236;-78
2024/03/06 06:27:36;;;;;;;19.63;17.03;;;;;;;6.44;84.77;101290.66;5070629;28;20213;-79
2024/03/06 06:30:02;;;;;;;17.60;16.00;;;;;;;6.49;83.86;101299.38;5070942;28;20237;-77
2024/03/06 06:32:29;;;;;;;18.53;16.77;;;;;;;6.40;84.65;101301.84;5071950;28;20209;-79
2024/03/06 06:34:56;;;;;;;17.93;16.53;;;;;;;6.44;84.99;101299.34;5072105;28;20777;-78
2024/03/06 06:37:22;;;;;;;18.13;16.27;;;;;;;6.45;84.46;101300.19;5072712;28;20201;-79
2024/03/06 06:39:50;;;;;;;17.60;16.00;;;;;;;6.49;84.65;101312.34;5066580;28;20197;-80
2024/03/06 06:42:16;;;;;;;18.07;16.17;;;;;;;6.46;83.71;101318.38;5081284;28;20254;-81
2024/03/06 06:44:43;;;;;;;19.10;17.07;;;;;;;6.52;83.62;101325.34;5084812;28;20282;-80
2024/03/06 06:47:09;;;;;;;19.47;16.17;;;;;;;6.52;83.73;101327.94;5092174;28;20193;-81
2024/03/06 06:49:35;;;;;;;17.53;15.37;;;;;;;6.54;83.52;101329.72;5094678;28;20204;-79
2024/03/06 06:52:02;;;;;;;17.73;16.00;;;;;;;6.52;84.01;101338.31;5096255;28;20205;-81
2024/03/06 06:54:28;;;;;;;23.07;16.47;;;;;;;6.51;83.32;101354.72;5094530;28;20201;-82
2024/03/06 06:56:56;;;;;;;16.67;15.07;;;;;;;6.49;83.90;101357.31;5095426;28;20205;-81
2024/03/06 06:59:23;;;;;;;17.33;15.70;;;;;;;6.50;83.01;101373.72;5093334;28;20227;-80
2024/03/06 07:01:49;;;;;;;18.27;15.60;;;;;;;6.47;84.07;101371.97;5092695;28;20208;-80
2024/03/06 07:04:17;;;;;;;16.80;15.40;;;;;;;6.48;83.83;101372.84;5093639;28;20213;-78
2024/03/06 07:06:43;;;;;;;17.63;15.83;;;;;;;6.53;82.94;101382.41;5090920;28;20232;-80
2024/03/06 07:09:10;;;;;;;17.83;16.00;;;;;;;6.57;83.28;101396.31;5091636;28;20197;-82
2024/03/06 07:11:36;;;;;;;17.97;16.23;;;;;;;6.58;82.42;101395.47;5095823;28;20288;-80
2024/03/06 07:14:04;;;;;;;17.77;16.17;;;;;;;6.59;82.17;101415.34;5096166;28;20719;-81
2024/03/06 07:16:30;;;;;;;17.80;16.10;;;;;;;6.61;82.00;101417.97;5095056;28;20213;-81
2024/03/06 07:18:56;;;;;;;18.37;16.57;;;;;;;6.60;82.85;101426.59;5094326;28;20243;-81
2024/03/06 07:21:23;;;;;;;20.33;15.50;;;;;;;6.60;82.73;101419.72;5096184;28;20212;-81
2024/03/06 07:23:49;;;;;;;18.57;16.67;;;;;;;6.59;82.57;101436.09;5094702;28;20205;-80
2024/03/06 07:26:16;;;;;;;17.63;14.93;;;;;;;6.60;82.29;101436.97;5093347;28;20228;-80
2024/03/06 07:28:42;;;;;;;18.33;16.63;;;;;;;6.53;82.91;101434.28;5093154;28;20205;-80
2024/03/06 07:31:10;;;;;;;19.07;16.50;;;;;;;6.57;82.49;101422.25;5096078;28;20231;-82
2024/03/06 07:33:37;;;;;;;18.60;16.83;;;;;;;6.53;83.86;101425.66;5094696;28;20209;-80
2024/03/06 07:36:04;;;;;;;19.47;17.43;;;;;;;6.53;83.15;101410.94;5094620;28;20209;-81
2024/03/06 07:38:31;;;;;;;18.80;16.83;;;;;;;6.52;83.49;101408.34;5093688;28;20184;-82
2024/03/06 07:40:57;;;;;;;21.10;16.43;;;;;;;6.53;83.50;101410.94;5093074;28;20202;-82
2024/03/06 07:43:24;;;;;;;17.87;16.07;;;;;;;6.56;84.30;101408.41;5088577;28;20201;-82
2024/03/06 07:45:50;;;;;;;19.07;17.07;;;;;;;6.56;83.89;101402.34;5090122;28;20255;-80
2024/03/06 07:48:18;;;;;;;18.83;17.23;;;;;;;6.59;83.73;101399.78;5091162;28;20239;-81
2024/03/06 07:50:44;;;;;;;17.90;16.17;;;;;;;6.64;83.47;101405.91;5092804;28;20242;-81
2024/03/06 07:53:10;;;;;;;18.27;16.53;;;;;;;6.67;83.40;101423.25;5091708;28;20205;-80
2024/03/06 07:55:38;;;;;;;18.53;16.63;;;;;;;6.68;82.38;101441.44;5085589;28;20232;-81
2024/03/06 07:58:05;;;;;;;19.30;16.17;;;;;;;6.64;83.35;101454.31;5074536;28;20589;-80
2024/03/06 08:00:31;;;;;;;18.40;16.70;;;;;;;6.69;81.30;101474.28;5067374;28;20209;-81
2024/03/06 08:02:58;;;;;;;18.80;16.90;;;;;;;6.71;82.09;101480.38;5058672;28;20206;-81
2024/03/06 08:05:27;;;;;;;20.07;18.07;;;;;;;6.74;82.76;101476.97;5056590;28;20298;-81
2024/03/06 08:07:53;;;;;;;20.10;18.10;;;;;;;6.73;82.14;101477.81;5056831;28;20218;-82
2024/03/06 08:10:20;;;;;;;19.87;17.87;;;;;;;6.76;81.58;101488.25;5056977;28;20278;-82
2024/03/06 08:12:47;;;;;;;18.83;16.87;;;;;;;6.73;81.58;101494.25;5056296;28;20209;-81
2024/03/06 08:15:14;;;;;;;19.63;17.53;;;;;;;6.75;81.60;101505.50;5056246;28;20233;-82
2024/03/06 08:17:42;;;;;;;20.00;18.10;;;;;;;6.64;82.77;101501.91;5055419;28;20205;-81
2024/03/06 08:20:10;;;;;;;18.83;16.97;;;;;;;6.69;82.91;101497.66;5055998;28;20228;-80
2024/03/06 08:22:40;;;;;;;18.60;16.67;;;;;;;6.69;81.98;101507.16;5058139;28;20205;-81
2024/03/06 08:25:08;;;;;;;19.23;17.27;;;;;;;6.73;82.30;101507.22;5058733;28;20233;-82
2024/03/06 08:27:35;;;;;;;20.50;18.20;;;;;;;6.72;83.28;101499.44;5056362;28;20217;-82
2024/03/06 08:30:03;;;;;;;18.03;16.30;;;;;;;6.76;82.71;101494.28;5053266;28;20271;-80
2024/03/06 08:32:30;;;;;;;18.93;17.13;;;;;;;6.77;83.44;101497.75;5038502;28;20249;-81
2024/03/06 08:34:56;;;;;;;21.33;17.67;;;;;;;6.85;82.24;101506.50;5039675;28;20226;-82
2024/03/06 08:37:22;;;;;;;18.83;17.03;;;;;;;6.87;82.57;101514.31;5043308;28;20236;-81
2024/03/06 08:39:50;;;;;;;19.67;17.73;;;;;;;6.92;81.16;101526.53;5040905;28;20207;-82
2024/03/06 08:42:18;;;;;;;18.37;16.77;;;;;;;6.92;81.42;101546.41;5038294;28;20214;-81
2024/03/06 08:44:44;;;;;;;20.37;18.40;;;;;;;6.87;81.84;101541.13;5038595;28;20226;-82
2024/03/06 08:47:11;;;;;;;19.37;17.27;;;;;;;6.87;81.93;101542.88;5040578;28;20209;-79
2024/03/06 08:49:37;;;;;;;19.87;17.87;;;;;;;6.91;82.80;101545.53;5037682;28;20264;-78
2024/03/06 08:52:09;;;;;;;20.47;18.37;;;;;;;6.95;81.97;101549.03;5037760;28;20276;-84
2024/03/06 08:54:36;;;;;;;23.27;18.17;;;;;;;6.92;81.95;101546.41;5038530;28;20216;-80
2024/03/06 08:57:04;;;;;;;18.77;16.90;;;;;;;6.99;81.59;101556.00;5038215;28;20260;-80
2024/03/06 08:59:30;;;;;;;20.00;18.00;;;;;;;6.97;81.71;101566.38;5072062;28;20213;-81
2024/03/06 09:01:57;;;;;;;19.53;17.57;;;;;;;6.91;80.98;101568.03;5078498;28;20212;-82
2024/03/06 09:04:23;;;;;;;22.20;17.93;;;;;;;6.91;81.11;101576.66;5076992;28;20611;-80
2024/03/06 09:06:50;;;;;;;19.53;17.73;;;;;;;6.92;81.57;101585.34;5077180;28;20216;-81
2024/03/06 09:09:16;;;;;;;19.97;17.87;;;;;;;6.88;80.80;101589.63;5075723;28;20277;-79
2024/03/06 09:11:42;;;;;;;19.40;17.47;;;;;;;6.86;81.39;101580.06;5077154;28;20225;-81
2024/03/06 09:14:10;;;;;;;21.03;18.30;;;;;;;6.93;81.79;101593.13;5076806;28;20226;-81
2024/03/06 09:16:37;;;;;;;25.03;19.47;;;;;;;6.99;81.05;101587.16;5076782;28;20232;-80
2024/03/06 09:19:03;;;;;;;18.27;16.33;;;;;;;7.00;81.77;101588.94;5076045;28;20215;-79
2024/03/06 09:21:29;;;;;;;20.13;18.07;;;;;;;7.06;81.35;101598.53;5077289;28;20201;-80
2024/03/06 09:23:56;;;;;;;20.93;18.73;;;;;;;7.08;80.94;101605.47;5077107;28;20274;-81
2024/03/06 09:26:22;;;;;;;20.43;18.30;;;;;;;7.12;80.31;101611.59;5076304;28;20274;-80
2024/03/06 09:28:49;;;;;;;20.47;18.23;;;;;;;7.09;81.61;101608.94;5073605;28;20741;-80
2024/03/06 09:31:17;;;;;;;23.40;19.67;;;;;;;7.12;80.93;101620.25;5077200;28;20722;-82
2024/03/06 09:33:43;;;;;;;19.87;18.00;;;;;;;7.17;80.69;101612.50;5083646;28;20209;-87
2024/03/06 09:36:13;;;;;;;21.40;19.07;;;;;;;7.16;81.19;101622.03;5084773;28;20212;-88
2024/03/06 09:38:40;;;;;;;20.03;18.17;;;;;;;7.25;80.81;101626.47;5084980;28;20231;-88
2024/03/06 09:41:07;;;;;;;19.20;17.40;;;;;;;7.30;79.29;101650.78;5088821;28;20205;-83
2024/03/06 09:43:34;;;;;;;20.07;18.30;;;;;;;7.31;78.82;101673.34;5087908;28;20205;-85
2024/03/06 09:46:02;;;;;;;19.80;17.90;;;;;;;7.35;79.65;101680.31;5078854;28;20225;-83
2024/03/06 09:48:30;;;;;;;23.97;19.00;;;;;;;7.39;79.73;101672.56;5075197;28;20235;-84
2024/03/06 09:51:02;;;;;;;21.13;18.77;;;;;;;7.38;80.39;101663.91;5075802;28;20278;-82
2024/03/06 09:53:28;;;;;;;20.20;18.20;;;;;;;7.44;80.94;101655.31;5084927;28;20212;-86
2024/03/06 09:55:57;;;;;;;20.63;18.83;;;;;;;7.46;80.51;101659.66;5086867;28;20209;-86
2024/03/06 09:58:23;;;;;;;20.80;18.73;;;;;;;7.56;79.53;101677.13;5080242;28;20210;-86
2024/03/06 10:00:51;;;;;;;20.03;17.83;;;;;;;7.63;79.27;101690.19;5073256;28;20201;-83
2024/03/06 10:03:17;;;;;;;21.97;19.33;;;;;;;7.68;79.32;101707.59;5075821;28;20682;-83
2024/03/06 10:05:46;;;;;;;20.93;17.80;;;;;;;7.71;80.28;101697.25;5080829;28;20232;-84
2024/03/06 10:08:49;;;;;;;22.83;19.63;;;;;;;7.73;79.82;101689.47;5082833;28;20209;-85
2024/03/06 10:11:17;;;;;;;27.03;20.10;;;;;;;7.87;79.40;101687.94;5070571;28;20762;-85
2024/03/06 10:13:43;;;;;;;27.50;21.23;;;;;;;7.90;80.02;101693.16;5083858;28;20205;-84
2024/03/06 10:16:11;;;;;;;21.17;19.00;;;;;;;8.01;79.18;101695.00;5081423;28;20251;-85
2024/03/06 10:18:40;;;;;;;21.80;19.30;;;;;;;8.04;78.14;101727.13;5081484;28;20204;-87
2024/03/06 10:21:08;;;;;;;23.33;18.93;;;;;;;8.10;77.70;101742.78;5082747;28;20678;-86
2024/03/06 10:23:37;;;;;;;21.43;19.27;;;;;;;8.15;76.71;101771.47;5083530;28;20201;-86
2024/03/06 10:29:31;;;;;;;20.33;18.23;;;;;;;8.19;76.27;101830.47;5089160;28;20193;-84
2024/03/06 10:31:59;;;;;;;20.90;18.77;;;;;;;8.25;75.71;101840.09;5078363;28;20236;-85
2024/03/06 10:34:27;;;;;;;23.83;19.13;;;;;;;8.30;75.78;101841.03;5085360;28;20259;-86
2024/03/06 10:36:57;;;;;;;22.00;19.73;;;;;;;8.39;76.62;101835.06;5087641;28;20209;-82
2024/03/06 10:39:40;;;;;;;;;;;;;;;;;;;;;
2024/03/06 10:42:08;;;;;;;21.33;19.10;;;;;;;8.50;75.71;101849.09;5084663;28;20240;-84
2024/03/06 10:44:36;;;;;;;22.80;20.00;;;;;;;8.55;75.19;101855.25;5086023;28;20310;-84
2024/03/06 10:47:06;;;;;;;24.73;19.53;;;;;;;8.60;74.34;101877.00;5084162;28;20209;-86
2024/03/06 10:49:34;;;;;;;20.67;18.67;;;;;;;8.62;73.97;101883.13;5086569;28;20205;-87
2024/03/06 10:52:06;;;;;;;21.43;19.30;;;;;;;8.62;75.11;101879.63;5087102;28;20235;-82
2024/03/06 10:54:34;;;;;;;21.67;18.10;;;;;;;8.71;74.13;101890.16;5088724;28;20235;-84
2024/03/06 10:57:02;;;;;;;20.10;18.00;;;;;;;8.74;74.43;101891.06;5088591;28;20208;-86
2024/03/06 10:59:30;;;;;;;20.37;18.33;;;;;;;8.80;73.85;101894.59;5075633;28;20224;-83
2024/03/06 11:01:57;;;;;;;20.87;18.67;;;;;;;8.79;73.25;101914.53;5082862;28;20238;-85
2024/03/06 11:04:28;;;;;;;21.80;19.60;;;;;;;8.70;73.21;101938.75;5087367;28;20254;-83
2024/03/06 11:06:55;;;;;;;20.57;18.63;;;;;;;8.72;74.20;101930.94;5074210;28;20212;-83
2024/03/06 11:09:23;;;;;;;23.53;19.50;;;;;;;8.77;75.13;101907.59;5082204;28;20201;-80
2024/03/06 11:11:51;;;;;;;19.27;17.37;;;;;;;8.77;74.19;101899.78;4372138;28;10000663;-82
2024/03/06 11:14:18;;;;;;;19.60;17.67;;;;;;;8.77;73.64;101910.19;5051897;28;20219;-83
2024/03/06 11:16:58;;;;;;;22.20;17.83;;;;;;;8.87;71.35;101948.50;5057138;28;20225;-85
2024/03/06 11:19:25;;;;;;;20.47;18.47;;;;;;;8.91;71.46;101978.94;5055403;28;20217;-85
2024/03/06 11:21:51;;;;;;;20.07;18.07;;;;;;;8.97;70.65;102002.44;5057487;28;20206;-86